Latest Weather Observations for Wynyard

IDT60801

Issued at 2:31 pm EST Monday 6 July 2015 (issued every 30 minutes, with the page automatically refreshed every 10 minutes)

About weather observations | Map of weather stations | Latest weather observations for TAS | Other Formats
Station Details ID: 091107 Name: WYNYARD AIRPORT Lat: -41.00 Lon: 145.73 Height: 12.0 m
Data from the previous 72 hours. | See also: Recent months at Wynyard
Date/Time
EST
Temp
°C
App
Temp
°C
Dew
Point
Rel
Hum
%
Delta-T
°C
Wind Press
QNH
hPa
Press
MSL
hPa
Rain
since 9 am
mm
Dir
 
Spd
km/h
Gust
km/h
Spd
kts
Gust
kts
06/02:30pm 9.8 6.6 6.7 81 1.4 E 13 20 7 11 1014.4 1014.5 0.0
06/02:00pm 9.7 5.6 6.4 80 1.5 E 17 24 9 13 1014.3 1014.4 0.0
06/01:30pm 9.7 6.1 6.8 82 1.4 E 15 22 8 12 1014.4 1014.5 0.0
06/01:00pm 9.7 6.0 6.2 79 1.6 E 15 22 8 12 1014.3 1014.4 0.0
06/12:30pm 10.0 6.5 7.1 82 1.4 E 15 24 8 13 1014.4 1014.5 0.0
06/12:00pm 9.6 6.0 6.7 82 1.4 E 15 22 8 12 1014.4 1014.5 0.0
06/11:30am 9.9 7.2 7.2 83 1.3 E 11 17 6 9 1014.7 1014.8 0.0
06/11:00am 10.1 7.7 8.5 90 0.8 SE 11 13 6 7 1014.7 1014.8 0.0
06/10:30am 9.4 7.6 7.8 90 0.8 SE 7 9 4 5 1014.7 1014.8 0.0
06/10:00am 9.4 7.0 8.5 94 0.4 ESE 11 15 6 8 1014.2 1014.3 0.0
06/09:30am 9.1 7.5 8.8 98 0.1 SSE 7 9 4 5 1014.2 1014.3 0.0
06/09:00am 8.8 7.2 8.7 99 0.0 SE 7 11 4 6 1013.9 1014.0 27.2
06/08:44am 8.8 7.2 8.7 99 0.0 SE 7 9 4 5 1013.7 1013.8 27.2
06/08:30am 8.9 7.3 8.8 99 0.0 SE 7 9 4 5 1013.5 1013.6 27.2
06/08:00am 8.9 7.5 8.8 99 0.0 SSE 6 9 3 5 1013.2 1013.3 27.2
06/07:30am 8.9 7.3 8.8 99 0.0 ESE 7 9 4 5 1013.0 1013.1 27.2
06/07:00am 9.0 8.8 8.9 99 0.0 CALM 0 0 0 0 1012.8 1012.9 27.2
06/06:30am 8.9 8.6 8.8 99 0.0 CALM 0 4 0 2 1012.6 1012.7 27.2
06/06:00am 8.9 7.5 8.8 99 0.0 SE 6 9 3 5 1012.4 1012.5 27.2
06/05:30am 9.0 7.6 8.9 99 0.0 S 6 9 3 5 1012.4 1012.5 27.2
06/05:00am 9.1 8.9 9.0 99 0.0 CALM 0 4 0 2 1012.3 1012.4 27.2
06/04:30am 9.2 7.9 9.1 99 0.0 SE 6 11 3 6 1012.3 1012.4 27.2
06/04:00am 9.1 7.6 9.0 99 0.0 ESE 7 11 4 6 1012.3 1012.4 27.2
06/03:30am 9.1 7.6 9.1 100 0.0 SSE 7 9 4 5 1012.5 1012.6 27.2
06/03:00am 9.3 7.5 9.3 100 0.0 ESE 9 13 5 7 1012.6 1012.7 27.2
06/02:58am 9.3 7.5 9.3 100 0.0 ESE 9 15 5 8 1012.6 1012.7 27.2
06/02:30am 9.6 7.5 9.6 100 0.0 E 11 15 6 8 1012.6 1012.7 27.0
06/02:15am 9.7 7.6 9.7 100 0.0 ESE 11 17 6 9 1012.6 1012.7 26.2
06/02:00am 9.7 8.3 9.7 100 0.0 ESE 7 11 4 6 1012.5 1012.6 25.8
06/01:57am 9.8 8.1 9.8 100 0.0 ESE 9 11 5 6 1012.4 1012.5 25.8
06/01:34am 9.8 6.9 9.8 100 0.0 ESE 15 22 8 12 1012.5 1012.6 25.2
06/01:30am 9.9 7.5 9.9 100 0.0 ESE 13 19 7 10 1012.5 1012.6 25.0
06/01:00am 9.9 7.8 9.9 100 0.0 E 11 17 6 9 1012.8 1012.9 24.4
06/12:30am 10.4 10.2 10.4 100 0.0 ESE 2 6 1 3 1012.8 1012.9 24.2
06/12:00am 10.0 8.7 10.0 100 0.0 SE 7 9 4 5 1012.7 1012.8 24.0
 
Date/Time
EST
Temp
°C
App
Temp
°C
Dew
Point
Rel
Hum
%
Delta-T
°C
Wind Press
QNH
hPa
Press
MSL
hPa
Rain
since 9 am
mm
Dir
 
Spd
km/h
Gust
km/h
Spd
kts
Gust
kts
05/11:30pm 10.5 9.6 10.5 100 0.0 SSE 6 7 3 4 1012.8 1012.9 23.8
05/11:16pm 10.3 9.7 10.3 100 0.0 SE 4 9 2 5 1012.6 1012.7 23.8
05/11:00pm 10.3 10.1 10.3 100 0.0 E 2 7 1 4 1012.8 1012.9 23.4
05/10:30pm 10.5 9.6 10.5 100 0.0 ESE 6 7 3 4 1012.9 1013.0 22.4
05/10:03pm 10.2 9.0 10.2 100 0.0 SE 7 9 4 5 1013.0 1013.1 20.8
05/10:00pm 10.2 9.0 10.2 100 0.0 SE 7 7 4 4 1013.0 1013.1 20.4
05/09:30pm 10.3 10.4 10.3 100 0.0 CALM 0 0 0 0 1013.2 1013.3 20.0
05/09:00pm 10.3 10.4 10.3 100 0.0 CALM 0 0 0 0 1013.3 1013.4 18.2
05/08:30pm 10.2 10.3 10.2 100 0.0 CALM 0 0 0 0 1013.3 1013.4 15.2
05/08:00pm 10.3 9.7 10.3 100 0.0 WSW 4 7 2 4 1013.4 1013.5 13.0
05/07:30pm 10.5 9.9 10.5 100 0.0 W 4 7 2 4 1013.5 1013.6 12.8
05/07:12pm 10.6 9.5 10.6 100 0.0 W 7 11 4 6 1013.5 1013.6 12.0
05/07:05pm 10.6 9.1 10.6 100 0.0 WSW 9 11 5 6 1013.5 1013.6 11.6
05/07:00pm 10.6 9.1 10.6 100 0.0 WSW 9 9 5 5 1013.4 1013.5 11.4
05/06:46pm 10.8 9.4 10.8 100 0.0 WSW 9 11 5 6 1013.3 1013.4 10.8
05/06:30pm 10.8 9.0 10.8 100 0.0 W 11 15 6 8 1013.2 1013.3 10.0
05/06:00pm 10.8 9.4 10.8 100 0.0 W 9 13 5 7 1012.9 1013.0 9.8
05/05:30pm 11.0 9.2 11.0 100 0.0 WNW 11 15 6 8 1012.8 1012.9 9.6
05/05:00pm 11.1 9.0 11.1 100 0.0 WNW 13 17 7 9 1012.7 1012.8 8.8
05/04:30pm 11.3 9.6 11.1 99 0.1 W 11 13 6 7 1012.4 1012.5 7.6
05/04:07pm 11.6 9.6 11.4 99 0.1 WNW 13 17 7 9 1012.3 1012.4 7.2
05/04:00pm 11.7 9.3 11.5 99 0.1 W 15 19 8 10 1012.4 1012.5 7.2
05/03:47pm 11.9 8.8 11.7 99 0.1 W 19 24 10 13 1012.6 1012.7 7.2
05/03:30pm 12.1 9.5 11.9 99 0.1 WSW 17 24 9 13 1012.4 1012.5 6.8
05/03:00pm 12.5 11.1 12.3 99 0.1 NW 11 15 6 8 1012.2 1012.3 6.6
05/02:30pm 12.1 10.2 11.9 99 0.1 W 13 17 7 9 1012.3 1012.4 6.4
05/02:15pm 12.0 9.7 11.8 99 0.1 WSW 15 19 8 10 1012.4 1012.5 6.2
05/02:00pm 12.2 10.0 12.0 99 0.1 W 15 20 8 11 1012.6 1012.7 5.4
05/01:40pm 12.4 10.6 12.2 99 0.1 WNW 13 19 7 10 1012.7 1012.8 4.4
05/01:36pm 12.5 11.1 12.3 99 0.1 WNW 11 17 6 9 1012.7 1012.8 4.2
05/01:30pm 12.6 11.3 12.4 99 0.1 WNW 11 13 6 7 1012.7 1012.8 4.2
05/01:00pm 12.9 10.3 12.0 94 0.5 WSW 17 24 9 13 1012.9 1013.0 4.2
05/12:30pm 12.6 10.9 12.4 99 0.1 WSW 13 19 7 10 1013.1 1013.2 4.2
05/12:00pm 11.7 11.9 11.7 100 0.0 NE 2 7 1 4 1013.2 1013.3 4.2
05/11:30am 10.8 11.1 10.8 100 0.0 CALM 0 0 0 0 1013.5 1013.6 4.2
05/11:00am 9.9 9.9 9.9 100 0.0 CALM 0 6 0 3 1013.9 1014.0 3.8
05/10:39am 9.5 8.3 9.5 100 0.0 SSE 6 7 3 4 1013.9 1014.0 3.6
05/10:30am 9.3 8.8 9.3 100 0.0 SSW 2 7 1 4 1014.0 1014.1 3.4
05/10:25am 9.4 9.3 9.4 100 0.0 CALM 0 7 0 4 1014.0 1014.1 3.2
05/10:20am 9.3 9.2 9.3 100 0.0 CALM 0 0 0 0 1014.0 1014.1 3.2
05/10:10am 9.2 9.0 9.2 100 0.0 CALM 0 0 0 0 1014.0 1014.1 2.6
05/10:00am 9.2 9.0 9.2 100 0.0 CALM 0 0 0 0 1013.9 1014.0 2.6
05/09:59am 9.2 9.0 9.2 100 0.0 CALM 0 0 0 0 1013.9 1014.0 2.4
05/09:55am 9.2 9.0 9.2 100 0.0 CALM 0 0 0 0 1013.9 1014.0 2.4
05/09:30am 8.9 8.3 8.9 100 0.0 S 2 7 1 4 1013.9 1014.0 1.8
05/09:00am 8.8 7.4 8.8 100 0.0 SW 6 7 3 4 1013.9 1014.0 10.4
05/08:30am 8.4 6.9 8.4 100 0.0 SSE 6 9 3 5 1013.7 1013.8 8.4
05/08:00am 7.7 6.4 7.7 100 0.0 SSW 4 7 2 4 1013.8 1013.9 5.0
05/07:48am 7.5 6.9 7.5 100 0.0 CALM 0 0 0 0 1014.0 1014.1 4.4
05/07:30am 7.4 6.8 7.4 100 0.0 CALM 0 0 0 0 1014.2 1014.3 3.6
05/07:10am 7.4 6.0 7.4 100 0.0 WSW 4 7 2 4 1014.2 1014.3 3.0
05/07:01am 7.4 5.5 7.4 100 0.0 SW 7 7 4 4 1014.2 1014.3 2.8
05/07:00am 7.4 5.5 7.4 100 0.0 SW 7 7 4 4 1014.2 1014.3 2.8
05/06:39am 7.3 5.5 7.3 100 0.0 W 6 7 3 4 1014.1 1014.2 2.0
05/06:30am 7.3 5.5 7.3 100 0.0 W 6 7 3 4 1014.2 1014.3 1.8
05/06:00am 7.2 6.2 7.2 100 0.0 SSW 2 6 1 3 1014.1 1014.2 1.2
05/05:32am 7.3 5.5 7.3 100 0.0 NW 6 7 3 4 1014.3 1014.4 1.2
05/05:30am 7.3 5.5 7.3 100 0.0 WNW 6 7 3 4 1014.3 1014.4 1.2
05/05:00am 7.2 5.8 7.2 100 0.0 WSW 4 11 2 6 1014.2 1014.3 1.2
05/04:46am 7.2 6.6 7.2 100 0.0 CALM 0 0 0 0 1014.5 1014.6 1.2
05/04:30am 7.2 6.6 7.2 100 0.0 CALM 0 0 0 0 1014.4 1014.5 1.0
05/04:25am 7.2 6.6 7.2 100 0.0 CALM 0 0 0 0 1014.5 1014.6 1.0
05/04:00am 7.2 6.6 7.2 100 0.0 CALM 0 4 0 2 1014.8 1014.9 1.0
05/03:36am 7.1 5.3 7.1 100 0.0 WSW 6 7 3 4 1014.9 1015.0 0.8
05/03:30am 7.0 5.2 7.0 100 0.0 WSW 6 6 3 3 1015.0 1015.1 0.8
05/03:23am 7.1 5.7 7.1 100 0.0 SW 4 7 2 4 1015.2 1015.3 0.8
05/03:18am 7.0 5.5 7.0 100 0.0 SW 4 9 2 5 1015.1 1015.2 0.8
05/03:00am 6.9 6.2 6.8 99 0.0 CALM 0 7 0 4 1015.3 1015.4 0.8
05/02:53am 6.8 5.7 6.8 100 0.0 WSW 2 7 1 4 1015.3 1015.4 0.6
05/02:42am 6.8 4.9 6.8 100 0.0 WSW 6 7 3 4 1015.4 1015.5 0.6
05/02:30am 6.7 4.8 6.7 100 0.0 SW 6 6 3 3 1015.4 1015.5 0.6
05/02:00am 6.6 5.1 6.6 100 0.0 SW 4 9 2 5 1015.6 1015.7 0.6
05/01:30am 6.3 4.3 6.3 100 0.0 WSW 6 7 3 4 1015.4 1015.5 0.6
05/01:24am 6.2 4.2 6.1 99 0.0 WSW 6 7 3 4 1015.5 1015.6 0.6
05/01:02am 6.2 4.0 6.2 100 0.0 WSW 7 9 4 5 1015.8 1015.9 0.6
05/01:00am 6.1 3.9 6.0 99 0.0 WSW 7 9 4 5 1015.8 1015.9 0.6
05/12:30am 6.0 3.8 6.0 100 0.0 SW 7 7 4 4 1016.0 1016.1 0.6
05/12:00am 5.7 3.6 5.6 99 0.0 SW 6 9 3 5 1016.1 1016.2 0.6
 
Date/Time
EST
Temp
°C
App
Temp
°C
Dew
Point
Rel
Hum
%
Delta-T
°C
Wind Press
QNH
hPa
Press
MSL
hPa
Rain
since 9 am
mm
Dir
 
Spd
km/h
Gust
km/h
Spd
kts
Gust
kts
04/11:30pm 6.0 3.9 5.9 99 0.0 WNW 6 9 3 5 1016.2 1016.3 0.6
04/11:00pm 5.2 2.4 5.1 99 0.0 SW 9 9 5 5 1016.2 1016.3 0.6
04/10:30pm 5.4 2.6 5.3 99 0.0 SW 9 13 5 7 1016.2 1016.3 0.6
04/10:00pm 5.6 3.3 5.5 99 0.0 WSW 7 9 4 5 1016.5 1016.6 0.6
04/09:30pm 5.6 3.4 5.5 99 0.0 SW 6 9 3 5 1016.5 1016.6 0.6
04/09:00pm 5.6 4.2 5.5 99 0.0 SW 2 6 1 3 1016.3 1016.4 0.6
04/08:30pm 5.7 3.6 5.6 99 0.0 WSW 6 7 3 4 1016.4 1016.5 0.6
04/08:00pm 6.7 4.8 6.6 99 0.0 W 6 7 3 4 1016.5 1016.6 0.6
04/07:30pm 6.9 5.8 6.8 99 0.0 WSW 2 7 1 4 1016.3 1016.4 0.6
04/07:00pm 8.0 5.9 6.5 90 0.7 WSW 7 11 4 6 1016.0 1016.1 0.6
04/06:30pm 9.1 7.2 7.4 89 0.8 WSW 7 11 4 6 1015.7 1015.8 0.6
04/06:00pm 9.3 7.4 7.6 89 0.8 WSW 7 13 4 7 1015.5 1015.6 0.6
04/05:30pm 9.8 7.1 7.2 84 1.2 WSW 11 15 6 8 1015.2 1015.3 0.6
04/05:00pm 10.5 7.5 7.9 84 1.3 WNW 13 15 7 8 1015.1 1015.2 0.6
04/04:30pm 10.9 7.0 7.2 78 1.8 WSW 17 22 9 12 1015.0 1015.1 0.4
04/04:00pm 12.4 7.6 7.5 72 2.4 WSW 22 32 12 17 1014.8 1014.9 0.4
04/03:30pm 13.3 9.9 9.2 76 2.1 WSW 17 24 9 13 1014.5 1014.6 0.4
04/03:00pm 12.4 8.6 9.2 81 1.6 WSW 19 24 10 13 1014.3 1014.4 0.4
04/02:30pm 12.6 9.0 9.8 83 1.4 WSW 19 26 10 14 1014.1 1014.2 0.4
04/02:00pm 12.6 8.0 9.6 82 1.5 WSW 24 32 13 17 1014.1 1014.2 0.4
04/01:30pm 13.7 9.1 9.7 77 2.1 WSW 24 37 13 20 1014.1 1014.2 0.4
04/01:00pm 13.6 9.0 9.8 78 2.0 WSW 24 35 13 19 1014.0 1014.1 0.4
04/12:30pm 13.3 9.3 10.5 83 1.5 WSW 22 32 12 17 1014.1 1014.2 0.4
04/12:00pm 13.9 9.9 11.8 87 1.1 WSW 24 35 13 19 1014.4 1014.5 0.4
04/11:30am 13.7 9.9 12.3 91 0.8 WSW 24 37 13 20 1014.5 1014.6 0.4
04/11:00am 12.9 10.5 12.7 99 0.1 W 17 22 9 12 1014.8 1014.9 0.4
04/10:47am 12.2 10.0 12.0 99 0.1 W 15 20 8 11 1014.9 1015.0 0.4
04/10:30am 12.1 9.8 11.9 99 0.1 WSW 15 20 8 11 1014.9 1015.0 0.2
04/10:00am 12.0 8.8 11.8 99 0.1 W 20 26 11 14 1014.7 1014.8 0.0
04/09:55am 12.0 8.8 11.8 99 0.1 W 20 26 11 14 1014.7 1014.8 0.0
04/09:30am 12.0 9.3 11.8 99 0.1 W 17 24 9 13 1014.5 1014.6 0.0
04/09:00am 11.4 8.0 11.2 99 0.1 W 20 26 11 14 1014.4 1014.5 0.8
04/08:30am 11.6 7.8 11.3 98 0.2 W 22 30 12 16 1014.4 1014.5 0.8
04/08:00am 10.4 8.0 10.2 99 0.1 WNW 13 17 7 9 1014.3 1014.4 0.8
04/07:30am 10.6 7.4 10.1 97 0.3 W 17 24 9 13 1014.3 1014.4 0.8
04/07:00am 11.3 6.9 10.5 95 0.4 WSW 24 30 13 16 1014.3 1014.4 0.8
04/06:30am 11.0 7.0 10.5 97 0.3 WSW 22 30 12 16 1014.1 1014.2 0.8
04/06:00am 10.8 7.2 10.6 99 0.1 W 20 28 11 15 1013.9 1014.0 0.8
04/05:36am 10.4 7.0 10.4 100 0.0 WNW 19 26 10 14 1013.8 1013.9 0.8
04/05:30am 10.5 7.5 10.5 100 0.0 WNW 17 26 9 14 1013.8 1013.9 0.8
04/05:00am 10.5 6.9 10.5 100 0.0 W 20 28 11 15 1014.0 1014.1 0.6
04/04:30am 10.2 6.5 10.0 99 0.1 W 20 26 11 14 1014.1 1014.2 0.2
04/04:29am 10.1 6.3 9.9 99 0.1 W 20 26 11 14 1014.1 1014.2 0.2
04/04:00am 9.9 6.3 9.8 99 0.1 W 19 28 10 15 1014.5 1014.6 0.0
04/03:33am 9.7 6.0 9.6 99 0.0 W 19 32 10 17 1015.0 1015.1 0.0
04/03:30am 9.6 5.9 9.5 99 0.0 W 19 24 10 13 1015.0 1015.1 0.0
04/03:27am 9.5 6.2 9.4 99 0.0 W 17 22 9 12 1015.0 1015.1 0.0
04/03:05am 9.3 6.7 9.2 99 0.0 W 13 22 7 12 1015.3 1015.4 0.0
04/03:00am 8.9 6.5 8.8 99 0.0 WSW 11 15 6 8 1015.5 1015.6 0.0
04/02:44am 8.8 5.7 8.7 99 0.0 W 15 22 8 12 1015.7 1015.8 0.0
04/02:34am 8.4 5.5 8.3 99 0.0 WNW 13 17 7 9 1015.8 1015.9 0.0
04/02:30am 8.1 5.2 8.0 99 0.0 WNW 13 15 7 8 1015.8 1015.9 0.0
04/02:00am 7.2 4.8 7.1 99 0.0 W 9 11 5 6 1016.1 1016.2 0.0
04/01:30am 7.0 4.2 6.9 99 0.0 W 11 13 6 7 1016.4 1016.5 0.0
04/01:00am 6.6 3.3 6.5 99 0.0 WSW 13 15 7 8 1016.8 1016.9 0.0
04/12:30am 6.2 2.8 6.1 99 0.0 W 13 15 7 8 1017.4 1017.4 0.0
04/12:00am 6.6 2.9 6.5 99 0.0 W 15 17 8 9 1017.8 1017.8 0.0
 
Date/Time
EST
Temp
°C
App
Temp
°C
Dew
Point
Rel
Hum
%
Delta-T
°C
Wind Press
QNH
hPa
Press
MSL
hPa
Rain
since 9 am
mm
Dir
 
Spd
km/h
Gust
km/h
Spd
kts
Gust
kts
03/11:30pm 7.0 3.1 6.9 99 0.0 W 17 20 9 11 1018.1 1018.1 0.0
03/11:00pm 6.8 2.8 6.7 99 0.0 W 17 19 9 10 1018.3 1018.3 0.0
03/10:30pm 7.2 2.9 7.1 99 0.0 W 19 24 10 13 1018.6 1018.6 0.0
03/10:00pm 7.2 2.7 7.1 99 0.0 W 20 24 11 13 1019.3 1019.3 0.0
03/09:30pm 6.6 2.6 6.5 99 0.0 W 17 20 9 11 1019.4 1019.4 0.0
03/09:00pm 6.3 2.6 6.2 99 0.0 W 15 19 8 10 1019.5 1019.5 0.0
03/08:30pm 4.3 1.9 4.2 99 0.0 SSW 6 9 3 5 1019.9 1019.9 0.0
03/08:00pm 4.2 2.9 4.1 99 0.0 CALM 0 0 0 0 1020.0 1020.0 0.0
03/07:30pm 4.6 3.0 4.5 99 0.0 WSW 2 6 1 3 1020.1 1020.1 0.0
03/07:00pm 6.0 3.0 5.9 99 0.0 W 11 15 6 8 1020.6 1020.6 0.0
03/06:30pm 6.5 3.6 6.4 99 0.0 WSW 11 17 6 9 1020.6 1020.6 0.0
03/06:00pm 5.7 2.1 5.1 96 0.3 WSW 13 17 7 9 1020.9 1020.9 0.0
03/05:30pm 7.2 2.7 6.3 94 0.4 WSW 19 24 10 13 1020.7 1020.7 0.0
03/05:00pm 7.0 3.5 5.3 89 0.7 WSW 13 17 7 9 1020.9 1020.9 0.0
03/04:30pm 8.1 2.6 5.9 86 1.0 WSW 24 37 13 20 1021.2 1021.2 0.0
03/04:00pm 9.0 4.4 6.3 83 1.2 WSW 20 30 11 16 1021.2 1021.2 0.0
03/03:30pm 8.8 3.8 6.6 86 1.0 WSW 22 35 12 19 1021.4 1021.4 0.0
03/03:00pm 9.5 4.5 6.6 82 1.3 WSW 22 28 12 15 1021.5 1021.5 0.0

Other Formats:

Comma delimited format used in spreadsheet applications
http://www.bom.gov.au/fwo/IDT60801/IDT60801.95957.axf

JavaScript Object Notation format (JSON) in row-major order
http://www.bom.gov.au/fwo/IDT60801/IDT60801.95957.json